createdAt,value
2022-11-29T00:01:07.877Z,32.83
2022-11-29T00:05:09.648Z,29.48
2022-11-29T00:09:13.344Z,33.13
2022-11-29T00:13:14.984Z,31.02
2022-11-29T00:17:16.935Z,29.15
2022-11-29T00:21:18.805Z,28.15
2022-11-29T00:25:20.502Z,33.45
2022-11-29T00:29:22.551Z,32.92
2022-11-29T00:33:24.180Z,32.45
2022-11-29T00:37:26.132Z,31.50
2022-11-29T00:41:27.989Z,32.15
2022-11-29T00:45:29.940Z,31.30
2022-11-29T00:49:31.560Z,29.88
2022-11-29T00:53:35.231Z,32.40
2022-11-29T00:57:36.788Z,34.42
2022-11-29T01:01:38.778Z,31.15
2022-11-29T01:05:41.328Z,30.23
2022-11-29T01:09:43.316Z,30.67
2022-11-29T01:13:45.056Z,30.58
2022-11-29T01:17:47.040Z,32.67
2022-11-29T01:21:48.596Z,31.25
2022-11-29T01:26:04.978Z,33.83
2022-11-29T01:30:09.487Z,33.05
2022-11-29T01:34:11.453Z,31.08
2022-11-29T01:38:13.054Z,31.98
2022-11-29T01:42:15.142Z,33.40
2022-11-29T01:46:16.826Z,39.55
2022-11-29T01:50:19.219Z,37.80
2022-11-29T01:54:22.061Z,33.53
2022-11-29T01:58:24.070Z,33.85
2022-11-29T02:02:33.283Z,32.72
2022-11-29T02:06:36.788Z,33.40
2022-11-29T02:10:54.658Z,35.90
2022-11-29T02:15:09.897Z,32.53
2022-11-29T02:19:42.496Z,31.27
2022-11-29T02:24:09.425Z,34.40
2022-11-29T02:28:30.266Z,32.90
2022-11-29T02:32:59.146Z,31.38
2022-11-29T02:37:19.475Z,34.83
2022-11-29T02:41:40.252Z,31.92
2022-11-29T02:46:07.030Z,27.75
2022-11-29T02:50:57.870Z,28.67
2022-11-29T02:55:24.440Z,27.65
2022-11-29T02:59:57.157Z,30.63
2022-11-29T03:04:25.989Z,32.83
2022-11-29T03:08:48.629Z,29.38
2022-11-29T03:12:53.681Z,26.30
2022-11-29T03:17:12.817Z,28.70
2022-11-29T03:21:39.384Z,26.13
2022-11-29T03:25:58.236Z,29.23
2022-11-29T03:30:05.225Z,28.92
2022-11-29T03:34:44.490Z,28.65
2022-11-29T03:38:47.365Z,27.75
2022-11-29T03:42:58.104Z,28.40
2022-11-29T03:47:23.112Z,28.23
2022-11-29T03:51:47.006Z,28.15
2022-11-29T03:55:57.342Z,26.58
2022-11-29T04:00:09.906Z,29.40
2022-11-29T04:04:42.988Z,28.45
2022-11-29T04:08:56.078Z,27.83
2022-11-29T04:13:24.159Z,28.85
2022-11-29T04:17:46.038Z,27.50
2022-11-29T04:22:19.057Z,29.20
2022-11-29T04:26:40.655Z,30.17
2022-11-29T04:31:06.348Z,27.98
2022-11-29T04:35:33.857Z,28.15
2022-11-29T04:39:57.696Z,27.70
2022-11-29T04:44:10.847Z,28.50
2022-11-29T04:48:38.895Z,28.88
2022-11-29T04:53:04.540Z,27.92
2022-11-29T04:57:21.141Z,28.90
2022-11-29T05:01:48.018Z,27.90
2022-11-29T05:06:04.622Z,26.48
2022-11-29T05:10:39.928Z,28.38
2022-11-29T05:14:56.341Z,29.13
2022-11-29T05:19:19.521Z,30.20
2022-11-29T05:23:32.367Z,29.30
2022-11-29T05:27:45.892Z,30.67
2022-11-29T05:31:59.281Z,31.20
2022-11-29T05:36:21.858Z,33.70
2022-11-29T05:40:57.225Z,29.38
2022-11-29T05:45:07.893Z,32.55
2022-11-29T05:49:30.445Z,32.70
2022-11-29T05:53:41.592Z,31.77
2022-11-29T05:57:58.914Z,32.75
2022-11-29T06:02:21.072Z,33.92
2022-11-29T06:06:32.751Z,33.85
2022-11-29T06:10:40.065Z,32.58
2022-11-29T06:15:17.743Z,37.25
2022-11-29T06:20:04.305Z,33.88
2022-11-29T06:24:26.214Z,34.00
2022-11-29T06:28:51.147Z,35.10
2022-11-29T06:33:01.089Z,34.17
2022-11-29T06:37:12.938Z,33.78
2022-11-29T06:41:24.440Z,33.45
2022-11-29T06:45:26.557Z,32.95
2022-11-29T06:49:32.514Z,32.38
2022-11-29T06:53:47.489Z,33.65
2022-11-29T06:57:55.522Z,36.90
2022-11-29T07:02:04.736Z,32.72
2022-11-29T07:06:24.907Z,31.80
2022-11-29T07:10:27.646Z,30.05
2022-11-29T07:14:29.772Z,34.78
2022-11-29T07:18:47.231Z,30.95
2022-11-29T07:23:13.190Z,31.50
2022-11-29T07:27:21.673Z,31.92
2022-11-29T07:31:38.539Z,31.23
2022-11-29T07:36:09.504Z,34.33
2022-11-29T07:40:37.149Z,30.55
2022-11-29T07:44:48.682Z,28.17
2022-11-29T07:48:51.486Z,31.48
2022-11-29T07:52:54.521Z,30.90
2022-11-29T07:56:56.443Z,27.40
2022-11-29T08:00:58.213Z,29.05
2022-11-29T08:05:01.673Z,30.55
2022-11-29T08:09:04.673Z,30.67
2022-11-29T08:13:06.515Z,27.90
2022-11-29T08:17:08.145Z,29.20
2022-11-29T08:21:10.404Z,27.65
2022-11-29T08:25:12.497Z,30.45
2022-11-29T08:29:14.422Z,29.13
2022-11-29T08:33:17.279Z,30.83
2022-11-29T08:37:19.219Z,27.73
2022-11-29T08:41:20.862Z,29.10
2022-11-29T08:45:22.810Z,29.75
2022-11-29T08:49:24.559Z,27.13
2022-11-29T08:53:41.431Z,27.45
2022-11-29T08:57:43.479Z,27.10
2022-11-29T09:01:45.026Z,26.48
2022-11-29T09:05:47.119Z,28.55
2022-11-29T09:09:48.877Z,27.17
2022-11-29T09:13:54.395Z,27.05
2022-11-29T09:17:55.992Z,26.65
2022-11-29T09:21:58.044Z,23.17
2022-11-29T09:25:59.932Z,24.48
2022-11-29T09:30:01.616Z,26.02
2022-11-29T09:34:04.026Z,24.05
2022-11-29T09:38:05.851Z,27.58
2022-11-29T09:42:18.915Z,24.05
2022-11-29T09:46:23.557Z,23.65
2022-11-29T09:50:28.070Z,25.35
2022-11-29T09:54:44.355Z,25.38
2022-11-29T09:58:57.490Z,26.77
2022-11-29T10:03:20.329Z,24.67
2022-11-29T10:07:30.197Z,24.65
2022-11-29T10:11:59.938Z,25.35
2022-11-29T10:16:24.539Z,25.58
2022-11-29T10:20:32.614Z,23.35
2022-11-29T10:24:38.794Z,23.27
2022-11-29T10:28:47.450Z,26.95
2022-11-29T10:32:56.164Z,26.98
2022-11-29T10:37:02.325Z,28.23
2022-11-29T10:41:10.551Z,26.80
2022-11-29T10:45:17.894Z,28.27
2022-11-29T10:49:23.658Z,27.25
2022-11-29T10:53:36.582Z,26.13
2022-11-29T10:58:07.616Z,27.02
2022-11-29T11:02:20.115Z,27.65
2022-11-29T11:06:26.450Z,26.48
2022-11-29T11:10:30.757Z,27.38
2022-11-29T11:14:37.524Z,25.58
2022-11-29T11:18:39.459Z,27.38
2022-11-29T11:22:41.356Z,25.75
2022-11-29T11:26:45.348Z,26.05
2022-11-29T11:30:59.387Z,28.80
2022-11-29T11:35:02.534Z,27.42
2022-11-29T11:39:19.545Z,26.00
2022-11-29T11:43:21.939Z,24.30
2022-11-29T11:47:27.289Z,24.23
2022-11-29T11:51:29.044Z,22.67
2022-11-29T11:55:43.665Z,25.73
2022-11-29T11:59:54.442Z,26.10
2022-11-29T12:04:10.151Z,25.75
2022-11-29T12:08:14.010Z,24.45
2022-11-29T12:12:25.277Z,26.25
2022-11-29T12:16:33.088Z,25.95
2022-11-29T12:20:48.590Z,27.50
2022-11-29T12:24:57.885Z,28.13
2022-11-29T12:29:00.005Z,27.58
2022-11-29T12:33:34.368Z,26.65
2022-11-29T12:37:53.343Z,32.58
2022-11-29T12:46:31.225Z,28.25
2022-11-29T12:50:45.252Z,32.25
2022-11-29T12:55:06.020Z,25.15
2022-11-29T12:59:26.135Z,23.73
2022-11-29T13:03:37.233Z,26.23
2022-11-29T13:08:01.387Z,27.23
2022-11-29T13:12:26.699Z,24.35
2022-11-29T13:16:31.344Z,25.75
2022-11-29T13:20:53.870Z,23.92
2022-11-29T13:25:12.716Z,23.75
2022-11-29T13:29:17.984Z,23.75
2022-11-29T13:33:54.374Z,27.42
2022-11-29T13:38:07.810Z,27.77
2022-11-29T13:42:28.996Z,25.65
2022-11-29T13:46:42.405Z,26.33
2022-11-29T13:50:45.201Z,26.42
2022-11-29T13:54:47.461Z,27.67
2022-11-29T13:58:53.802Z,24.60
2022-11-29T14:02:57.398Z,23.27
2022-11-29T14:07:06.102Z,24.70
2022-11-29T14:11:14.146Z,22.52
2022-11-29T14:15:42.875Z,27.67
2022-11-29T14:19:44.789Z,26.02
2022-11-29T14:23:46.797Z,25.63
2022-11-29T14:27:56.169Z,25.90
2022-11-29T14:31:59.792Z,27.73
2022-11-29T14:36:29.964Z,26.63
2022-11-29T14:40:41.318Z,24.92
2022-11-29T14:44:47.262Z,27.00
2022-11-29T14:48:55.239Z,26.50
2022-11-29T14:52:56.887Z,27.15
2022-11-29T14:57:38.152Z,28.02
2022-11-29T15:01:45.414Z,25.08
2022-11-29T15:06:06.163Z,23.98
2022-11-29T15:10:17.836Z,23.70
2022-11-29T15:14:50.552Z,25.80
2022-11-29T15:19:22.951Z,23.35
2022-11-29T15:23:24.701Z,25.98
2022-11-29T15:27:27.087Z,26.15
2022-11-29T15:31:28.891Z,24.48
2022-11-29T15:35:32.900Z,23.10
2022-11-29T15:39:37.809Z,24.38
2022-11-29T15:43:40.847Z,28.13
2022-11-29T15:47:42.527Z,25.35
2022-11-29T15:51:49.578Z,24.70
2022-11-29T15:55:53.947Z,24.95
2022-11-29T15:59:59.131Z,27.35
2022-11-29T16:04:01.493Z,27.25
2022-11-29T16:08:07.958Z,26.40
2022-11-29T16:12:14.153Z,27.48
2022-11-29T16:16:23.698Z,28.90
2022-11-29T16:20:26.099Z,25.65
2022-11-29T16:24:28.267Z,28.30
2022-11-29T16:28:37.357Z,28.88
2022-11-29T16:32:43.183Z,24.95
2022-11-29T16:36:44.919Z,26.25
2022-11-29T16:41:08.616Z,28.13
2022-11-29T16:45:33.644Z,30.67
2022-11-29T16:49:36.420Z,29.38
2022-11-29T16:53:42.333Z,26.95
2022-11-29T16:57:45.827Z,27.15
2022-11-29T17:01:47.893Z,26.45
2022-11-29T17:05:50.195Z,27.38
2022-11-29T17:09:52.884Z,26.75
2022-11-29T17:13:54.513Z,30.08
2022-11-29T17:17:56.522Z,28.60
2022-11-29T17:21:58.623Z,25.15
2022-11-29T17:26:02.433Z,24.83
2022-11-29T17:30:06.586Z,26.98
2022-11-29T17:34:08.913Z,28.77
2022-11-29T17:38:10.520Z,26.73
2022-11-29T17:42:12.601Z,27.45
2022-11-29T17:46:16.826Z,31.98
2022-11-29T17:50:19.076Z,28.77
2022-11-29T17:54:23.947Z,28.15
2022-11-29T17:58:26.344Z,24.42
2022-11-29T18:02:27.996Z,28.55
2022-11-29T18:06:34.853Z,29.65
2022-11-29T18:10:36.545Z,28.00
2022-11-29T18:14:39.059Z,28.48
2022-11-29T18:18:41.085Z,26.83
2022-11-29T18:22:43.177Z,26.05
2022-11-29T18:26:45.264Z,24.67
2022-11-29T18:30:47.596Z,25.08
2022-11-29T18:34:49.404Z,26.10
2022-11-29T18:38:59.846Z,24.58
2022-11-29T18:43:01.502Z,34.25
2022-11-29T18:47:03.931Z,28.30
2022-11-29T18:51:07.961Z,24.67
2022-11-29T18:55:10.031Z,25.08
2022-11-29T18:59:17.198Z,27.63
2022-11-29T19:03:19.530Z,26.98
2022-11-29T19:07:21.272Z,25.48
2022-11-29T19:11:25.140Z,25.38
2022-11-29T19:15:26.767Z,26.88
2022-11-29T19:19:28.754Z,25.90
2022-11-29T19:23:30.710Z,23.80
2022-11-29T19:27:32.400Z,23.50
2022-11-29T19:31:34.444Z,25.08
2022-11-29T19:35:36.111Z,26.23
2022-11-29T19:39:38.876Z,25.13
2022-11-29T19:43:41.062Z,25.88
2022-11-29T19:47:42.911Z,24.55
2022-11-29T19:51:44.951Z,24.20
2022-11-29T19:55:46.650Z,26.52
2022-11-29T19:59:48.616Z,26.90
2022-11-29T20:03:51.089Z,23.92
2022-11-29T20:07:53.243Z,23.92
2022-11-29T20:11:54.854Z,24.67
2022-11-29T20:16:02.326Z,22.50
2022-11-29T20:20:04.608Z,25.15
2022-11-29T20:24:07.845Z,27.48
2022-11-29T20:28:09.540Z,28.02
2022-11-29T20:32:11.823Z,26.70
2022-11-29T20:36:37.623Z,27.02
2022-11-29T20:41:02.972Z,28.10
2022-11-29T20:45:08.353Z,28.17
2022-11-29T20:49:14.129Z,29.10
2022-11-29T20:53:35.012Z,24.45
2022-11-29T20:57:38.501Z,25.83
2022-11-29T21:01:40.500Z,25.30
2022-11-29T21:05:42.643Z,22.65
2022-11-29T21:09:45.092Z,25.85
2022-11-29T21:13:47.650Z,26.48
2022-11-29T21:17:50.033Z,28.40
2022-11-29T21:22:19.909Z,25.27
2022-11-29T21:26:35.989Z,25.85
2022-11-29T21:30:43.434Z,25.73
2022-11-29T21:34:45.741Z,23.98
2022-11-29T21:38:53.883Z,27.63
2022-11-29T21:42:56.934Z,24.92
2022-11-29T21:46:58.694Z,26.38
2022-11-29T21:51:05.447Z,26.90
2022-11-29T21:55:07.500Z,26.45
2022-11-29T21:59:09.551Z,26.20
2022-11-29T22:03:11.251Z,26.48
2022-11-29T22:07:13.215Z,26.38
2022-11-29T22:11:30.763Z,25.30
2022-11-29T22:15:33.009Z,24.67
2022-11-29T22:19:39.450Z,24.17
2022-11-29T22:23:41.125Z,25.15
2022-11-29T22:27:43.079Z,26.35
2022-11-29T22:31:47.025Z,26.73
2022-11-29T22:35:48.867Z,26.60
2022-11-29T22:39:50.747Z,25.35
2022-11-29T22:43:52.945Z,24.88
2022-11-29T22:47:54.584Z,25.92
2022-11-29T22:51:56.515Z,24.13
2022-11-29T22:56:00.014Z,25.13
2022-11-29T23:00:02.040Z,25.23
2022-11-29T23:04:07.101Z,28.80
2022-11-29T23:08:08.932Z,24.75
2022-11-29T23:12:10.961Z,26.58
2022-11-29T23:16:16.058Z,25.38
2022-11-29T23:20:17.930Z,27.63
2022-11-29T23:24:20.007Z,24.02
2022-11-29T23:28:21.959Z,26.67
2022-11-29T23:32:24.060Z,23.58
2022-11-29T23:36:26.009Z,26.88
2022-11-29T23:40:27.655Z,25.65
2022-11-29T23:44:29.618Z,23.27
2022-11-29T23:48:31.288Z,24.48
2022-11-29T23:52:33.168Z,25.77
2022-11-29T23:56:35.490Z,24.30
